createdAt,value
2022-09-14T00:01:31.819Z,2.88
2022-09-14T00:03:59.588Z,3.10
2022-09-14T00:06:26.308Z,2.85
2022-09-14T00:08:53.369Z,2.70
2022-09-14T00:11:20.230Z,3.42
2022-09-14T00:13:47.239Z,3.00
2022-09-14T00:16:15.500Z,3.30
2022-09-14T00:18:42.331Z,3.00
2022-09-14T00:21:09.805Z,3.20
2022-09-14T00:23:37.208Z,4.13
2022-09-14T00:26:08.623Z,3.15
2022-09-14T00:28:39.300Z,3.33
2022-09-14T00:31:06.219Z,3.80
2022-09-14T00:33:33.711Z,3.60
2022-09-14T00:36:06.903Z,4.80
2022-09-14T00:38:33.371Z,4.43
2022-09-14T00:41:00.264Z,3.83
2022-09-14T00:43:26.623Z,3.83
2022-09-14T00:45:53.287Z,3.58
2022-09-14T00:48:20.303Z,3.65
2022-09-14T00:50:46.641Z,4.53
2022-09-14T00:53:12.904Z,4.25
2022-09-14T00:55:39.147Z,4.95
2022-09-14T00:58:05.405Z,5.85
2022-09-14T01:00:31.751Z,4.70
2022-09-14T01:02:58.184Z,5.07
2022-09-14T01:05:44.378Z,5.30
2022-09-14T01:08:18.788Z,5.32
2022-09-14T01:10:58.935Z,5.30
2022-09-14T01:13:33.195Z,5.40
2022-09-14T01:16:18.506Z,6.68
2022-09-14T01:18:46.083Z,5.18
2022-09-14T01:21:14.296Z,5.55
2022-09-14T01:23:49.012Z,5.68
2022-09-14T01:26:16.114Z,5.78
2022-09-14T01:29:01.293Z,5.40
2022-09-14T01:31:32.405Z,5.30
2022-09-14T01:34:05.344Z,6.18
2022-09-14T01:36:34.151Z,6.65
2022-09-14T01:39:01.700Z,5.22
2022-09-14T01:41:31.308Z,5.93
2022-09-14T01:44:13.525Z,6.85
2022-09-14T01:46:42.771Z,6.25
2022-09-14T01:49:15.134Z,5.20
2022-09-14T01:51:45.354Z,4.50
2022-09-14T01:54:16.983Z,5.40
2022-09-14T01:56:49.385Z,5.68
2022-09-14T01:59:36.323Z,5.85
2022-09-14T02:02:18.573Z,5.88
2022-09-14T02:04:54.251Z,6.00
2022-09-14T02:09:48.234Z,4.72
2022-09-14T02:12:15.770Z,5.50
2022-09-14T02:14:42.834Z,5.68
2022-09-14T02:17:09.217Z,4.63
2022-09-14T02:19:38.651Z,5.88
2022-09-14T02:22:04.935Z,5.40
2022-09-14T02:24:31.205Z,4.70
2022-09-14T02:26:58.383Z,5.53
2022-09-14T02:29:24.672Z,5.38
2022-09-14T02:32:09.597Z,5.63
2022-09-14T02:34:38.676Z,5.55
2022-09-14T02:37:13.566Z,5.70
2022-09-14T02:39:50.266Z,4.53
2022-09-14T02:42:19.548Z,4.88
2022-09-14T02:44:45.788Z,4.75
2022-09-14T02:47:16.874Z,5.90
2022-09-14T02:49:48.512Z,4.68
2022-09-14T02:52:22.334Z,4.72
2022-09-14T02:54:58.949Z,4.70
2022-09-14T02:57:25.742Z,4.80
2022-09-14T02:59:55.035Z,5.18
2022-09-14T03:02:21.406Z,5.97
2022-09-14T03:04:47.706Z,5.55
2022-09-14T03:07:13.958Z,5.05
2022-09-14T03:09:40.220Z,5.82
2022-09-14T03:12:06.500Z,5.18
2022-09-14T03:14:32.750Z,4.03
2022-09-14T03:16:58.990Z,4.35
2022-09-14T03:19:25.267Z,5.50
2022-09-14T03:21:51.739Z,4.55
2022-09-14T03:24:17.997Z,4.88
2022-09-14T03:26:45.771Z,4.45
2022-09-14T03:29:12.040Z,5.15
2022-09-14T03:31:38.445Z,5.22
2022-09-14T03:34:04.768Z,4.55
2022-09-14T03:36:31.297Z,4.85
2022-09-14T03:38:58.269Z,5.68
2022-09-14T03:41:24.814Z,4.65
2022-09-14T03:43:51.231Z,4.40
2022-09-14T03:46:21.290Z,3.80
2022-09-14T03:48:48.238Z,4.45
2022-09-14T03:51:14.839Z,4.25
2022-09-14T03:53:41.884Z,3.88
2022-09-14T03:56:09.156Z,4.40
2022-09-14T03:58:35.432Z,4.22
2022-09-14T04:01:05.515Z,4.72
2022-09-14T04:03:32.208Z,4.38
2022-09-14T04:05:58.675Z,5.05
2022-09-14T04:08:25.239Z,5.75
2022-09-14T04:10:51.596Z,5.78
2022-09-14T04:13:17.878Z,4.93
2022-09-14T04:15:44.239Z,4.93
2022-09-14T04:18:10.565Z,4.70
2022-09-14T04:20:37.174Z,4.60
2022-09-14T04:23:03.427Z,5.10
2022-09-14T04:25:29.674Z,4.22
2022-09-14T04:28:16.750Z,4.43
2022-09-14T04:30:42.657Z,4.30
2022-09-14T04:33:08.951Z,4.22
2022-09-14T04:35:35.191Z,4.43
2022-09-14T04:38:01.439Z,3.95
2022-09-14T04:40:29.018Z,4.13
2022-09-14T04:42:55.322Z,3.95
2022-09-14T04:45:21.658Z,4.32
2022-09-14T04:47:47.956Z,4.63
2022-09-14T04:50:14.703Z,4.50
2022-09-14T04:52:40.974Z,5.43
2022-09-14T04:55:07.640Z,4.30
2022-09-14T04:57:33.903Z,4.38
2022-09-14T05:00:00.144Z,4.63
2022-09-14T05:02:26.935Z,4.20
2022-09-14T05:04:53.275Z,4.60
2022-09-14T05:07:19.526Z,4.70
2022-09-14T05:09:45.763Z,5.55
2022-09-14T05:12:12.041Z,4.78
2022-09-14T05:14:38.282Z,4.85
2022-09-14T05:17:04.761Z,4.82
2022-09-14T05:19:31.039Z,6.15
2022-09-14T05:21:57.280Z,5.70
2022-09-14T05:24:23.607Z,5.85
2022-09-14T05:26:51.970Z,7.53
2022-09-14T05:29:18.652Z,7.53
2022-09-14T05:31:45.426Z,9.80
2022-09-14T05:34:11.775Z,12.15
2022-09-14T05:36:38.807Z,15.60
2022-09-14T05:39:05.974Z,13.32
2022-09-14T05:41:32.387Z,13.20
2022-09-14T05:43:59.256Z,13.13
2022-09-14T05:46:25.896Z,19.15
2022-09-14T05:48:52.375Z,15.20
2022-09-14T05:51:20.397Z,11.27
2022-09-14T05:53:48.299Z,12.50
2022-09-14T05:56:14.596Z,11.75
2022-09-14T05:58:41.414Z,11.38
2022-09-14T06:01:11.419Z,10.27
2022-09-14T06:03:38.015Z,11.25
2022-09-14T06:06:05.376Z,12.20
2022-09-14T06:08:31.776Z,11.18
2022-09-14T06:11:02.367Z,14.70
2022-09-14T06:13:28.621Z,16.02
2022-09-14T06:15:54.890Z,15.32
2022-09-14T06:18:21.142Z,17.73
2022-09-14T06:20:51.391Z,16.95
2022-09-14T06:23:17.796Z,17.05
2022-09-14T06:25:44.487Z,17.02
2022-09-14T06:28:10.734Z,14.45
2022-09-14T06:30:36.971Z,13.07
2022-09-14T06:33:04.961Z,11.27
2022-09-14T06:35:31.215Z,12.50
2022-09-14T06:37:57.454Z,10.27
2022-09-14T06:40:23.835Z,9.85
2022-09-14T06:42:50.144Z,11.07
2022-09-14T06:45:16.453Z,10.52
2022-09-14T06:47:42.731Z,9.82
2022-09-14T06:50:09.039Z,10.63
2022-09-14T06:52:38.238Z,11.13
2022-09-14T06:55:04.734Z,12.48
2022-09-14T06:57:31.015Z,13.07
2022-09-14T06:59:57.451Z,15.25
2022-09-14T07:02:23.731Z,23.40
2022-09-14T07:04:49.990Z,14.15
2022-09-14T07:07:16.486Z,12.88
2022-09-14T07:09:42.761Z,11.57
2022-09-14T07:12:09.714Z,10.82
2022-09-14T07:14:36.754Z,11.25
2022-09-14T07:17:03.043Z,9.90
2022-09-14T07:19:29.347Z,9.43
2022-09-14T07:21:55.850Z,9.05
2022-09-14T07:24:22.098Z,10.23
2022-09-14T07:26:48.356Z,9.07
2022-09-14T07:29:18.868Z,9.82
2022-09-14T07:31:54.253Z,11.05
2022-09-14T07:34:20.743Z,11.70
2022-09-14T07:36:47.294Z,10.95
2022-09-14T07:39:15.079Z,10.48
2022-09-14T07:41:41.667Z,11.27
2022-09-14T07:44:08.364Z,9.43
2022-09-14T07:46:39.165Z,9.50
2022-09-14T07:49:06.407Z,9.45
2022-09-14T07:51:34.595Z,10.73
2022-09-14T07:54:01.673Z,10.68
2022-09-14T07:56:28.327Z,9.57
2022-09-14T07:59:11.636Z,10.30
2022-09-14T08:01:43.186Z,9.40
2022-09-14T08:04:09.515Z,10.25
2022-09-14T08:06:37.110Z,10.27
2022-09-14T08:09:05.720Z,9.18
2022-09-14T08:11:32.348Z,9.88
2022-09-14T08:13:59.499Z,10.23
2022-09-14T08:16:26.973Z,9.05
2022-09-14T08:18:54.758Z,9.45
2022-09-14T08:21:21.197Z,8.68
2022-09-14T08:23:47.443Z,8.23
2022-09-14T08:26:18.291Z,6.95
2022-09-14T08:28:44.726Z,7.32
2022-09-14T08:31:17.985Z,6.78
2022-09-14T08:33:46.144Z,7.60
2022-09-14T08:36:14.211Z,6.38
2022-09-14T08:38:40.645Z,6.95
2022-09-14T08:41:19.452Z,7.07
2022-09-14T08:43:45.745Z,6.38
2022-09-14T08:46:25.598Z,6.78
2022-09-14T08:48:52.710Z,7.07
2022-09-14T08:51:19.042Z,7.05
2022-09-14T08:53:45.520Z,7.43
2022-09-14T08:56:13.994Z,7.40
2022-09-14T08:58:46.280Z,6.97
2022-09-14T09:01:26.960Z,6.65
2022-09-14T09:03:59.640Z,6.97
2022-09-14T09:06:28.997Z,6.75
2022-09-14T09:08:55.228Z,7.45
2022-09-14T09:11:22.855Z,7.03
2022-09-14T09:13:50.658Z,6.03
2022-09-14T09:16:18.844Z,6.72
2022-09-14T09:18:59.898Z,7.00
2022-09-14T09:21:32.439Z,6.88
2022-09-14T09:24:04.136Z,6.57
2022-09-14T09:26:31.700Z,7.10
2022-09-14T09:28:59.351Z,6.93
2022-09-14T09:31:33.359Z,7.72
2022-09-14T09:34:00.612Z,6.65
2022-09-14T09:36:30.262Z,6.38
2022-09-14T09:38:56.504Z,6.68
2022-09-14T09:41:23.878Z,7.18
2022-09-14T09:43:57.951Z,7.38
2022-09-14T09:46:24.303Z,6.57
2022-09-14T09:48:50.708Z,7.30
2022-09-14T09:51:25.296Z,6.88
2022-09-14T09:53:53.003Z,7.28
2022-09-14T09:56:20.751Z,7.88
2022-09-14T09:58:51.501Z,7.28
2022-09-14T10:01:19.934Z,7.63
2022-09-14T10:04:02.065Z,6.60
2022-09-14T10:06:28.578Z,6.72
2022-09-14T10:08:57.346Z,6.43
2022-09-14T10:11:34.378Z,7.30
2022-09-14T10:14:00.761Z,5.95
2022-09-14T10:16:32.020Z,6.57
2022-09-14T10:18:59.356Z,6.80
2022-09-14T10:21:25.864Z,7.25
2022-09-14T10:24:06.123Z,7.03
2022-09-14T10:26:34.358Z,5.97
2022-09-14T10:29:24.936Z,6.22
2022-09-14T10:31:52.123Z,6.32
2022-09-14T10:34:19.484Z,7.80
2022-09-14T10:36:50.202Z,7.22
2022-09-14T10:39:29.817Z,7.00
2022-09-14T10:42:14.815Z,8.02
2022-09-14T10:44:41.052Z,8.60
2022-09-14T10:47:10.330Z,7.97
2022-09-14T10:49:59.457Z,8.50
2022-09-14T10:52:25.696Z,8.35
2022-09-14T10:55:13.047Z,9.45
2022-09-14T10:57:45.258Z,8.77
2022-09-14T11:00:13.409Z,7.68
2022-09-14T11:02:49.228Z,8.00
2022-09-14T11:05:21.598Z,8.18
2022-09-14T11:07:54.218Z,7.25
2022-09-14T11:10:30.085Z,7.65
2022-09-14T11:13:14.444Z,7.40
2022-09-14T11:15:48.526Z,7.93
2022-09-14T11:18:30.618Z,7.88
2022-09-14T11:21:15.470Z,9.00
2022-09-14T11:23:54.264Z,8.45
2022-09-14T11:26:39.117Z,8.73
2022-09-14T11:29:16.014Z,8.15
2022-09-14T11:32:04.250Z,9.10
2022-09-14T11:34:38.030Z,7.97
2022-09-14T11:37:13.307Z,7.65
2022-09-14T11:42:12.612Z,7.45
2022-09-14T11:44:39.895Z,7.65
2022-09-14T11:47:20.256Z,7.43
2022-09-14T11:49:49.291Z,8.23
2022-09-14T11:52:20.855Z,8.38
2022-09-14T11:54:48.292Z,8.23
2022-09-14T11:57:17.501Z,7.78
2022-09-14T11:59:44.243Z,7.25
2022-09-14T12:02:22.867Z,6.18
2022-09-14T12:05:04.547Z,6.68
2022-09-14T12:07:39.903Z,6.13
2022-09-14T12:12:33.758Z,5.10
2022-09-14T12:15:01.037Z,6.63
2022-09-14T12:17:39.785Z,7.72
2022-09-14T12:20:24.770Z,7.57
2022-09-14T12:22:51.029Z,7.10
2022-09-14T12:25:19.027Z,8.68
2022-09-14T12:27:46.794Z,6.78
2022-09-14T12:30:31.544Z,7.85
2022-09-14T12:32:57.805Z,7.37
2022-09-14T12:35:39.023Z,7.20
2022-09-14T12:38:23.774Z,7.90
2022-09-14T12:40:50.389Z,9.13
2022-09-14T12:43:34.838Z,9.40
2022-09-14T12:46:01.123Z,7.65
2022-09-14T12:48:45.740Z,8.60
2022-09-14T12:51:33.733Z,8.40
2022-09-14T12:54:08.982Z,8.60
2022-09-14T12:59:20.715Z,8.25
2022-09-14T13:01:49.876Z,9.13
2022-09-14T13:04:25.651Z,10.57
2022-09-14T13:06:52.958Z,9.27
2022-09-14T13:09:21.120Z,9.90
2022-09-14T13:11:49.291Z,8.55
2022-09-14T13:14:19.081Z,8.52
2022-09-14T13:16:47.372Z,8.15
2022-09-14T13:19:21.629Z,8.18
2022-09-14T13:21:48.725Z,8.65
2022-09-14T13:24:24.367Z,8.48
2022-09-14T13:26:50.759Z,8.57
2022-09-14T13:29:17.033Z,9.25
2022-09-14T13:31:46.798Z,8.70
2022-09-14T13:34:34.644Z,10.80
2022-09-14T13:37:01.135Z,8.88
2022-09-14T13:39:33.054Z,8.40
2022-09-14T13:41:59.470Z,7.65
2022-09-14T13:44:28.091Z,7.82
2022-09-14T13:46:55.359Z,7.35
2022-09-14T13:49:21.701Z,8.52
2022-09-14T13:51:48.079Z,7.97
2022-09-14T13:54:28.330Z,8.32
2022-09-14T13:57:11.106Z,8.13
2022-09-14T13:59:37.378Z,9.38
2022-09-14T14:02:04.161Z,8.75
2022-09-14T14:04:35.410Z,8.98
2022-09-14T14:07:03.902Z,7.28
2022-09-14T14:09:42.603Z,8.02
2022-09-14T14:12:09.915Z,7.75
2022-09-14T14:14:36.182Z,7.80
2022-09-14T14:17:22.729Z,9.05
2022-09-14T14:19:49.939Z,8.32
2022-09-14T14:22:16.207Z,8.07
2022-09-14T14:25:09.104Z,7.82
2022-09-14T14:27:37.566Z,9.05
2022-09-14T14:30:20.231Z,8.45
2022-09-14T14:32:50.801Z,7.88
2022-09-14T14:35:22.166Z,7.80
2022-09-14T14:37:48.873Z,7.75
2022-09-14T14:40:15.985Z,8.52
2022-09-14T14:42:42.680Z,9.68
2022-09-14T14:45:13.429Z,8.27
2022-09-14T14:47:39.846Z,8.05
2022-09-14T14:50:12.827Z,9.18
2022-09-14T14:52:39.091Z,7.25
2022-09-14T14:55:05.563Z,7.28
2022-09-14T14:57:31.810Z,6.78
2022-09-14T14:59:58.059Z,7.68
2022-09-14T15:02:24.304Z,6.15
2022-09-14T15:04:50.549Z,6.93
2022-09-14T15:07:17.616Z,7.05
2022-09-14T15:09:44.670Z,6.65
2022-09-14T15:12:10.913Z,6.28
2022-09-14T15:14:37.159Z,6.63
2022-09-14T15:17:03.689Z,6.28
2022-09-14T15:19:29.973Z,7.35
2022-09-14T15:22:00.972Z,6.43
2022-09-14T15:24:28.452Z,49.53
2022-09-14T15:26:54.702Z,73.45
2022-09-14T15:29:21.038Z,13.30
2022-09-14T15:31:47.354Z,7.97
2022-09-14T15:34:13.647Z,7.15
2022-09-14T15:36:42.327Z,6.53
2022-09-14T15:39:10.904Z,6.18
2022-09-14T15:41:37.160Z,6.57
2022-09-14T15:44:03.834Z,6.95
2022-09-14T15:46:30.536Z,7.35
2022-09-14T15:48:56.954Z,6.97
2022-09-14T15:51:23.295Z,6.80
2022-09-14T15:53:52.166Z,7.03
2022-09-14T15:56:18.851Z,7.38
2022-09-14T15:58:48.109Z,7.15
2022-09-14T16:01:15.920Z,7.50
2022-09-14T16:03:42.703Z,7.28
2022-09-14T16:06:12.519Z,7.72
2022-09-14T16:08:39.250Z,7.65
2022-09-14T16:11:06.268Z,7.45
2022-09-14T16:13:32.810Z,7.95
2022-09-14T16:16:17.679Z,7.68
2022-09-14T16:18:44.195Z,8.27
2022-09-14T16:21:15.234Z,7.93
2022-09-14T16:23:42.989Z,7.28
2022-09-14T16:26:13.603Z,7.85
2022-09-14T16:28:43.486Z,7.93
2022-09-14T16:31:11.226Z,6.85
2022-09-14T16:33:38.647Z,8.00
2022-09-14T16:36:09.632Z,7.68
2022-09-14T16:38:36.326Z,6.30
2022-09-14T16:41:03.219Z,8.63
2022-09-14T16:43:30.200Z,8.30
2022-09-14T16:46:02.488Z,7.88
2022-09-14T16:48:28.820Z,8.57
2022-09-14T16:50:55.581Z,8.73
2022-09-14T16:53:21.836Z,7.68
2022-09-14T16:55:48.497Z,8.27
2022-09-14T16:58:14.795Z,8.02
2022-09-14T17:00:44.097Z,8.00
2022-09-14T17:03:10.711Z,7.07
2022-09-14T17:05:38.036Z,7.38
2022-09-14T17:08:04.345Z,8.63
2022-09-14T17:10:33.026Z,7.35
2022-09-14T17:12:59.292Z,7.38
2022-09-14T17:15:25.554Z,6.72
2022-09-14T17:17:51.835Z,6.10
2022-09-14T17:20:18.145Z,7.43
2022-09-14T17:22:44.379Z,6.68
2022-09-14T17:25:14.875Z,6.30
2022-09-14T17:27:43.450Z,6.55
2022-09-14T17:30:10.279Z,6.78
2022-09-14T17:32:36.530Z,6.90
2022-09-14T17:35:02.848Z,6.55
2022-09-14T17:37:29.122Z,6.43
2022-09-14T17:39:55.513Z,6.82
2022-09-14T17:42:21.830Z,6.40
2022-09-14T17:44:48.066Z,6.78
2022-09-14T17:47:14.336Z,6.70
2022-09-14T17:49:40.608Z,6.57
2022-09-14T17:52:06.959Z,7.45
2022-09-14T17:54:33.398Z,6.38
2022-09-14T17:56:59.666Z,6.80
2022-09-14T17:59:27.083Z,6.28
2022-09-14T18:01:53.356Z,6.88
2022-09-14T18:04:19.636Z,6.65
2022-09-14T18:06:47.067Z,6.80
2022-09-14T18:09:17.723Z,7.18
2022-09-14T18:11:44.312Z,6.18
2022-09-14T18:14:12.724Z,6.57
2022-09-14T18:16:39.501Z,7.22
2022-09-14T18:19:06.231Z,6.40
2022-09-14T18:21:32.572Z,5.53
2022-09-14T18:23:58.847Z,5.70
2022-09-14T18:26:25.410Z,5.68
2022-09-14T18:28:53.462Z,5.93
2022-09-14T18:31:19.954Z,6.05
2022-09-14T18:33:50.267Z,5.93
2022-09-14T18:36:16.807Z,5.90
2022-09-14T18:38:43.266Z,5.97
2022-09-14T18:41:10.275Z,6.05
2022-09-14T18:43:36.528Z,6.70
2022-09-14T18:46:07.146Z,6.13
2022-09-14T18:48:34.067Z,6.45
2022-09-14T18:51:01.467Z,5.50
2022-09-14T18:53:27.855Z,7.95
2022-09-14T18:55:54.156Z,6.93
2022-09-14T18:58:20.403Z,6.35
2022-09-14T19:00:47.441Z,6.50
2022-09-14T19:03:13.730Z,6.88
2022-09-14T19:05:41.346Z,6.85
2022-09-14T19:08:08.255Z,7.15
2022-09-14T19:10:37.388Z,7.15
2022-09-14T19:13:04.531Z,7.93
2022-09-14T19:15:32.823Z,7.50
2022-09-14T19:17:59.302Z,7.35
2022-09-14T19:20:34.292Z,7.57
2022-09-14T19:23:09.662Z,7.88
2022-09-14T19:25:39.115Z,7.38
2022-09-14T19:28:05.949Z,6.60
2022-09-14T19:30:32.550Z,6.95
2022-09-14T19:32:59.908Z,7.40
2022-09-14T19:35:27.077Z,7.47
2022-09-14T19:37:53.867Z,7.20
2022-09-14T19:40:20.634Z,8.70
2022-09-14T19:42:46.939Z,7.85
2022-09-14T19:45:16.346Z,7.75
2022-09-14T19:47:42.592Z,7.70
2022-09-14T19:50:09.183Z,9.00
2022-09-14T19:52:35.714Z,7.93
2022-09-14T19:55:02.064Z,8.43
2022-09-14T19:57:28.307Z,7.80
2022-09-14T19:59:54.623Z,7.22
2022-09-14T20:02:20.946Z,6.88
2022-09-14T20:04:47.335Z,7.68
2022-09-14T20:07:13.605Z,7.28
2022-09-14T20:09:39.887Z,6.80
2022-09-14T20:12:06.183Z,7.50
2022-09-14T20:14:32.478Z,8.63
2022-09-14T20:16:59.066Z,7.70
2022-09-14T20:19:26.987Z,7.40
2022-09-14T20:21:53.498Z,7.25
2022-09-14T20:24:20.783Z,7.55
2022-09-14T20:26:47.904Z,7.05
2022-09-14T20:29:15.244Z,6.45
2022-09-14T20:31:41.555Z,6.75
2022-09-14T20:34:07.954Z,6.88
2022-09-14T20:36:34.239Z,6.57
2022-09-14T20:39:00.483Z,7.13
2022-09-14T20:41:28.588Z,7.60
2022-09-14T20:43:55.284Z,9.23
2022-09-14T20:46:22.962Z,8.52
2022-09-14T20:48:49.863Z,7.40
2022-09-14T20:51:20.034Z,7.47
2022-09-14T20:53:47.386Z,8.18
2022-09-14T20:56:14.943Z,7.20
2022-09-14T20:58:41.779Z,7.18
2022-09-14T21:01:12.629Z,6.93
2022-09-14T21:03:41.016Z,6.72
2022-09-14T21:06:08.300Z,7.72
2022-09-14T21:08:35.711Z,7.32
2022-09-14T21:11:02.882Z,7.55
2022-09-14T21:13:29.139Z,8.23
2022-09-14T21:15:55.453Z,7.50
2022-09-14T21:18:21.760Z,7.45
2022-09-14T21:20:48.028Z,8.00
2022-09-14T21:23:14.276Z,6.88
2022-09-14T21:25:40.602Z,6.85
2022-09-14T21:28:07.042Z,7.40
2022-09-14T21:30:33.401Z,7.53
2022-09-14T21:32:59.727Z,7.75
2022-09-14T21:35:29.190Z,7.15
2022-09-14T21:37:57.879Z,8.07
2022-09-14T21:40:25.166Z,8.75
2022-09-14T21:42:51.577Z,8.93
2022-09-14T21:45:17.837Z,8.88
2022-09-14T21:47:44.166Z,8.30
2022-09-14T21:50:10.553Z,8.27
2022-09-14T21:52:40.236Z,7.88
2022-09-14T21:55:06.664Z,8.15
2022-09-14T21:57:32.890Z,7.05
2022-09-14T21:59:59.145Z,8.02
2022-09-14T22:02:25.466Z,8.23
2022-09-14T22:04:51.866Z,7.60
2022-09-14T22:07:18.124Z,7.32
2022-09-14T22:09:44.400Z,8.52
2022-09-14T22:12:10.718Z,6.47
2022-09-14T22:14:36.974Z,6.78
2022-09-14T22:17:03.239Z,6.47
2022-09-14T22:19:30.258Z,8.15
2022-09-14T22:21:56.659Z,7.20
2022-09-14T22:24:28.213Z,6.93
2022-09-14T22:26:54.895Z,7.47
2022-09-14T22:29:21.150Z,7.25
2022-09-14T22:31:47.399Z,7.30
2022-09-14T22:34:13.839Z,8.00
2022-09-14T22:36:40.307Z,7.43
2022-09-14T22:39:07.604Z,7.82
2022-09-14T22:41:33.887Z,6.70
2022-09-14T22:44:00.163Z,7.93
2022-09-14T22:46:26.642Z,8.45
2022-09-14T22:48:53.492Z,8.75
2022-09-14T22:51:21.612Z,8.95
2022-09-14T22:53:47.942Z,8.43
2022-09-14T22:56:14.175Z,9.02
2022-09-14T22:58:40.420Z,8.50
2022-09-14T23:01:07.640Z,8.30
2022-09-14T23:03:34.116Z,8.23
2022-09-14T23:06:00.376Z,8.95
2022-09-14T23:08:30.046Z,8.25
2022-09-14T23:10:56.317Z,8.57
2022-09-14T23:13:22.962Z,9.57
2022-09-14T23:15:49.375Z,9.63
2022-09-14T23:18:15.631Z,8.35
2022-09-14T23:20:43.107Z,9.00
2022-09-14T23:23:09.819Z,9.13
2022-09-14T23:25:37.189Z,8.57
2022-09-14T23:28:04.541Z,8.00
2022-09-14T23:30:31.168Z,7.82
2022-09-14T23:32:58.226Z,8.23
2022-09-14T23:35:24.959Z,9.50
2022-09-14T23:37:51.195Z,8.57
2022-09-14T23:40:19.501Z,8.48
2022-09-14T23:42:46.375Z,8.82
2022-09-14T23:45:13.219Z,8.32
2022-09-14T23:47:39.718Z,8.52
2022-09-14T23:50:06.478Z,9.27
2022-09-14T23:52:32.803Z,8.40
2022-09-14T23:54:59.092Z,9.07
2022-09-14T23:57:25.375Z,9.32
2022-09-14T23:59:51.628Z,8.55
